sensor_id;sensor_type;location;lat;lon;timestamp;P1;durP1;ratioP1;P2;durP2;ratioP2
37321;SDS011;23697;48.684;9.032;2022-08-05T00:00:51;6.00;;;4.20;;
37321;SDS011;23697;48.684;9.032;2022-08-05T00:03:18;7.13;;;4.15;;
37321;SDS011;23697;48.684;9.032;2022-08-05T00:05:47;6.00;;;4.00;;
37321;SDS011;23697;48.684;9.032;2022-08-05T00:08:14;8.18;;;4.22;;
37321;SDS011;23697;48.684;9.032;2022-08-05T00:10:45;6.38;;;4.07;;
37321;SDS011;23697;48.684;9.032;2022-08-05T00:13:12;7.03;;;4.22;;
37321;SDS011;23697;48.684;9.032;2022-08-05T00:15:39;6.32;;;4.60;;
37321;SDS011;23697;48.684;9.032;2022-08-05T00:18:10;6.45;;;4.35;;
37321;SDS011;23697;48.684;9.032;2022-08-05T00:20:38;6.32;;;4.28;;
37321;SDS011;23697;48.684;9.032;2022-08-05T00:23:08;9.50;;;4.40;;
37321;SDS011;23697;48.684;9.032;2022-08-05T00:25:35;8.68;;;4.57;;
37321;SDS011;23697;48.684;9.032;2022-08-05T00:28:02;8.73;;;4.78;;
37321;SDS011;23697;48.684;9.032;2022-08-05T00:30:29;7.20;;;4.55;;
37321;SDS011;23697;48.684;9.032;2022-08-05T00:32:56;7.80;;;4.55;;
37321;SDS011;23697;48.684;9.032;2022-08-05T00:35:23;7.03;;;4.47;;
37321;SDS011;23697;48.684;9.032;2022-08-05T00:37:50;5.88;;;4.50;;
37321;SDS011;23697;48.684;9.032;2022-08-05T00:40:22;5.28;;;4.07;;
37321;SDS011;23697;48.684;9.032;2022-08-05T00:42:50;7.53;;;4.45;;
37321;SDS011;23697;48.684;9.032;2022-08-05T00:45:24;7.28;;;4.25;;
37321;SDS011;23697;48.684;9.032;2022-08-05T00:48:12;8.20;;;4.20;;
37321;SDS011;23697;48.684;9.032;2022-08-05T00:50:46;5.88;;;4.13;;
37321;SDS011;23697;48.684;9.032;2022-08-05T00:53:22;5.10;;;3.90;;
37321;SDS011;23697;48.684;9.032;2022-08-05T00:55:52;6.70;;;4.05;;
37321;SDS011;23697;48.684;9.032;2022-08-05T00:58:26;6.22;;;3.90;;
37321;SDS011;23697;48.684;9.032;2022-08-05T01:01:00;6.18;;;3.67;;
37321;SDS011;23697;48.684;9.032;2022-08-05T01:03:30;5.00;;;3.40;;
37321;SDS011;23697;48.684;9.032;2022-08-05T01:05:59;5.68;;;3.45;;
37321;SDS011;23697;48.684;9.032;2022-08-05T01:08:34;5.15;;;3.42;;
37321;SDS011;23697;48.684;9.032;2022-08-05T01:11:08;5.43;;;3.50;;
37321;SDS011;23697;48.684;9.032;2022-08-05T01:13:47;6.82;;;3.53;;
37321;SDS011;23697;48.684;9.032;2022-08-05T01:16:28;7.13;;;3.20;;
37321;SDS011;23697;48.684;9.032;2022-08-05T01:30:43;8.25;;;3.47;;
37321;SDS011;23697;48.684;9.032;2022-08-05T01:33:22;8.93;;;3.40;;
37321;SDS011;23697;48.684;9.032;2022-08-05T01:35:54;8.63;;;3.38;;
37321;SDS011;23697;48.684;9.032;2022-08-05T01:38:30;6.65;;;3.13;;
37321;SDS011;23697;48.684;9.032;2022-08-05T01:41:05;9.65;;;3.05;;
37321;SDS011;23697;48.684;9.032;2022-08-05T01:43:35;7.72;;;3.03;;
37321;SDS011;23697;48.684;9.032;2022-08-05T01:46:04;5.40;;;2.97;;
37321;SDS011;23697;48.684;9.032;2022-08-05T01:48:31;11.20;;;3.13;;
37321;SDS011;23697;48.684;9.032;2022-08-05T01:51:01;8.88;;;3.00;;
37321;SDS011;23697;48.684;9.032;2022-08-05T01:53:29;6.75;;;3.13;;
37321;SDS011;23697;48.684;9.032;2022-08-05T01:55:58;8.93;;;3.10;;
37321;SDS011;23697;48.684;9.032;2022-08-05T01:58:27;6.32;;;2.83;;
37321;SDS011;23697;48.684;9.032;2022-08-05T02:00:57;6.97;;;2.85;;
37321;SDS011;23697;48.684;9.032;2022-08-05T02:03:28;5.47;;;2.88;;
37321;SDS011;23697;48.684;9.032;2022-08-05T02:05:58;12.07;;;3.10;;
37321;SDS011;23697;48.684;9.032;2022-08-05T02:08:26;9.10;;;2.88;;
37321;SDS011;23697;48.684;9.032;2022-08-05T02:10:55;7.72;;;2.88;;
37321;SDS011;23697;48.684;9.032;2022-08-05T02:13:31;8.88;;;3.10;;
37321;SDS011;23697;48.684;9.032;2022-08-05T02:16:03;11.73;;;3.20;;
37321;SDS011;23697;48.684;9.032;2022-08-05T02:18:40;8.48;;;3.15;;
37321;SDS011;23697;48.684;9.032;2022-08-05T02:21:11;6.82;;;3.20;;
37321;SDS011;23697;48.684;9.032;2022-08-05T02:23:41;8.27;;;2.95;;
37321;SDS011;23697;48.684;9.032;2022-08-05T02:26:10;9.15;;;2.97;;
37321;SDS011;23697;48.684;9.032;2022-08-05T02:28:41;8.07;;;3.17;;
37321;SDS011;23697;48.684;9.032;2022-08-05T02:31:13;7.90;;;3.35;;
37321;SDS011;23697;48.684;9.032;2022-08-05T02:33:43;9.70;;;3.20;;
37321;SDS011;23697;48.684;9.032;2022-08-05T02:36:15;13.15;;;3.45;;
37321;SDS011;23697;48.684;9.032;2022-08-05T02:41:11;9.65;;;3.20;;
37321;SDS011;23697;48.684;9.032;2022-08-05T02:43:39;8.30;;;3.13;;
37321;SDS011;23697;48.684;9.032;2022-08-05T02:46:07;7.20;;;3.17;;
37321;SDS011;23697;48.684;9.032;2022-08-05T02:48:38;8.65;;;3.30;;
37321;SDS011;23697;48.684;9.032;2022-08-05T02:51:05;8.90;;;3.15;;
37321;SDS011;23697;48.684;9.032;2022-08-05T02:53:33;6.82;;;3.10;;
37321;SDS011;23697;48.684;9.032;2022-08-05T02:56:03;5.57;;;3.03;;
37321;SDS011;23697;48.684;9.032;2022-08-05T02:58:30;7.80;;;3.30;;
37321;SDS011;23697;48.684;9.032;2022-08-05T03:00:59;5.32;;;2.80;;
37321;SDS011;23697;48.684;9.032;2022-08-05T03:03:27;6.75;;;3.13;;
37321;SDS011;23697;48.684;9.032;2022-08-05T03:05:57;9.52;;;3.25;;
37321;SDS011;23697;48.684;9.032;2022-08-05T03:08:25;7.15;;;3.17;;
37321;SDS011;23697;48.684;9.032;2022-08-05T03:10:52;7.78;;;3.10;;
37321;SDS011;23697;48.684;9.032;2022-08-05T03:13:19;7.20;;;3.40;;
37321;SDS011;23697;48.684;9.032;2022-08-05T03:15:46;8.05;;;3.20;;
37321;SDS011;23697;48.684;9.032;2022-08-05T03:18:13;7.60;;;3.28;;
37321;SDS011;23697;48.684;9.032;2022-08-05T03:20:40;8.20;;;3.10;;
37321;SDS011;23697;48.684;9.032;2022-08-05T03:23:08;8.80;;;3.10;;
37321;SDS011;23697;48.684;9.032;2022-08-05T03:25:37;8.00;;;3.42;;
37321;SDS011;23697;48.684;9.032;2022-08-05T03:28:04;6.68;;;3.45;;
37321;SDS011;23697;48.684;9.032;2022-08-05T03:30:32;11.95;;;3.50;;
37321;SDS011;23697;48.684;9.032;2022-08-05T03:32:59;8.57;;;3.63;;
37321;SDS011;23697;48.684;9.032;2022-08-05T03:35:27;7.93;;;3.38;;
37321;SDS011;23697;48.684;9.032;2022-08-05T03:37:55;7.60;;;3.70;;
37321;SDS011;23697;48.684;9.032;2022-08-05T03:40:23;10.57;;;3.40;;
37321;SDS011;23697;48.684;9.032;2022-08-05T03:42:51;8.88;;;3.33;;
37321;SDS011;23697;48.684;9.032;2022-08-05T03:45:18;8.43;;;3.25;;
37321;SDS011;23697;48.684;9.032;2022-08-05T03:47:45;7.35;;;3.60;;
37321;SDS011;23697;48.684;9.032;2022-08-05T03:50:12;8.93;;;3.70;;
37321;SDS011;23697;48.684;9.032;2022-08-05T03:52:41;10.05;;;3.47;;
37321;SDS011;23697;48.684;9.032;2022-08-05T03:55:14;9.85;;;3.40;;
37321;SDS011;23697;48.684;9.032;2022-08-05T04:00:13;7.70;;;3.40;;
37321;SDS011;23697;48.684;9.032;2022-08-05T04:02:41;11.45;;;3.60;;
37321;SDS011;23697;48.684;9.032;2022-08-05T04:05:11;7.22;;;3.70;;
37321;SDS011;23697;48.684;9.032;2022-08-05T04:07:40;6.90;;;3.50;;
37321;SDS011;23697;48.684;9.032;2022-08-05T04:10:07;6.82;;;3.60;;
37321;SDS011;23697;48.684;9.032;2022-08-05T04:12:34;6.38;;;3.50;;
37321;SDS011;23697;48.684;9.032;2022-08-05T04:15:03;10.18;;;3.80;;
37321;SDS011;23697;48.684;9.032;2022-08-05T04:20:00;9.00;;;3.97;;
37321;SDS011;23697;48.684;9.032;2022-08-05T04:22:27;6.15;;;3.80;;
37321;SDS011;23697;48.684;9.032;2022-08-05T04:24:54;8.48;;;3.67;;
37321;SDS011;23697;48.684;9.032;2022-08-05T04:27:21;8.18;;;3.97;;
37321;SDS011;23697;48.684;9.032;2022-08-05T04:29:48;9.88;;;3.80;;
37321;SDS011;23697;48.684;9.032;2022-08-05T04:32:16;11.32;;;3.63;;
37321;SDS011;23697;48.684;9.032;2022-08-05T04:34:43;7.28;;;3.80;;
37321;SDS011;23697;48.684;9.032;2022-08-05T04:37:10;7.95;;;3.80;;
37321;SDS011;23697;48.684;9.032;2022-08-05T04:39:37;9.60;;;3.85;;
37321;SDS011;23697;48.684;9.032;2022-08-05T04:42:04;10.95;;;4.03;;
37321;SDS011;23697;48.684;9.032;2022-08-05T04:44:31;8.40;;;3.88;;
37321;SDS011;23697;48.684;9.032;2022-08-05T04:47:00;12.93;;;3.90;;
37321;SDS011;23697;48.684;9.032;2022-08-05T04:49:31;8.98;;;3.80;;
37321;SDS011;23697;48.684;9.032;2022-08-05T04:51:58;10.00;;;3.80;;
37321;SDS011;23697;48.684;9.032;2022-08-05T04:54:25;9.40;;;3.60;;
37321;SDS011;23697;48.684;9.032;2022-08-05T04:56:52;8.02;;;3.60;;
37321;SDS011;23697;48.684;9.032;2022-08-05T04:59:19;9.23;;;3.65;;
37321;SDS011;23697;48.684;9.032;2022-08-05T05:01:47;8.50;;;3.67;;
37321;SDS011;23697;48.684;9.032;2022-08-05T05:04:14;8.10;;;3.70;;
37321;SDS011;23697;48.684;9.032;2022-08-05T05:06:43;10.23;;;3.95;;
37321;SDS011;23697;48.684;9.032;2022-08-05T05:09:09;8.35;;;3.80;;
37321;SDS011;23697;48.684;9.032;2022-08-05T05:11:37;9.27;;;4.38;;
37321;SDS011;23697;48.684;9.032;2022-08-05T05:14:04;11.00;;;4.10;;
37321;SDS011;23697;48.684;9.032;2022-08-05T05:16:30;15.15;;;4.20;;
37321;SDS011;23697;48.684;9.032;2022-08-05T05:18:57;9.77;;;3.70;;
37321;SDS011;23697;48.684;9.032;2022-08-05T05:21:24;9.38;;;3.78;;
37321;SDS011;23697;48.684;9.032;2022-08-05T05:23:52;8.70;;;4.00;;
37321;SDS011;23697;48.684;9.032;2022-08-05T05:26:19;8.75;;;4.00;;
37321;SDS011;23697;48.684;9.032;2022-08-05T05:28:46;8.38;;;4.05;;
37321;SDS011;23697;48.684;9.032;2022-08-05T05:31:13;10.77;;;4.35;;
37321;SDS011;23697;48.684;9.032;2022-08-05T05:33:40;8.70;;;4.32;;
37321;SDS011;23697;48.684;9.032;2022-08-05T05:36:07;7.15;;;4.03;;
37321;SDS011;23697;48.684;9.032;2022-08-05T05:38:35;9.45;;;4.10;;
37321;SDS011;23697;48.684;9.032;2022-08-05T05:41:03;10.48;;;4.35;;
37321;SDS011;23697;48.684;9.032;2022-08-05T05:43:30;10.60;;;4.38;;
37321;SDS011;23697;48.684;9.032;2022-08-05T05:45:57;8.88;;;4.50;;
37321;SDS011;23697;48.684;9.032;2022-08-05T05:48:23;10.35;;;4.10;;
37321;SDS011;23697;48.684;9.032;2022-08-05T05:50:50;15.20;;;4.70;;
37321;SDS011;23697;48.684;9.032;2022-08-05T05:53:17;11.95;;;4.22;;
37321;SDS011;23697;48.684;9.032;2022-08-05T05:55:44;11.85;;;4.60;;
37321;SDS011;23697;48.684;9.032;2022-08-05T05:58:13;8.98;;;4.47;;
37321;SDS011;23697;48.684;9.032;2022-08-05T06:00:39;7.68;;;3.97;;
37321;SDS011;23697;48.684;9.032;2022-08-05T06:03:06;11.32;;;4.80;;
37321;SDS011;23697;48.684;9.032;2022-08-05T06:05:33;10.05;;;4.85;;
37321;SDS011;23697;48.684;9.032;2022-08-05T06:08:00;10.38;;;5.00;;
37321;SDS011;23697;48.684;9.032;2022-08-05T06:10:27;11.55;;;5.00;;
37321;SDS011;23697;48.684;9.032;2022-08-05T06:12:54;10.68;;;5.28;;
37321;SDS011;23697;48.684;9.032;2022-08-05T06:15:23;9.00;;;4.93;;
37321;SDS011;23697;48.684;9.032;2022-08-05T06:17:50;14.23;;;5.53;;
37321;SDS011;23697;48.684;9.032;2022-08-05T06:20:17;10.55;;;4.88;;
37321;SDS011;23697;48.684;9.032;2022-08-05T06:22:44;12.60;;;4.40;;
37321;SDS011;23697;48.684;9.032;2022-08-05T06:25:11;8.18;;;4.90;;
37321;SDS011;23697;48.684;9.032;2022-08-05T06:27:37;11.77;;;4.80;;
37321;SDS011;23697;48.684;9.032;2022-08-05T06:30:06;9.93;;;4.90;;
37321;SDS011;23697;48.684;9.032;2022-08-05T06:32:36;11.70;;;4.38;;
37321;SDS011;23697;48.684;9.032;2022-08-05T06:35:03;11.18;;;4.75;;
37321;SDS011;23697;48.684;9.032;2022-08-05T06:37:30;8.82;;;4.28;;
37321;SDS011;23697;48.684;9.032;2022-08-05T06:39:57;10.32;;;5.10;;
37321;SDS011;23697;48.684;9.032;2022-08-05T06:42:24;10.32;;;3.88;;
37321;SDS011;23697;48.684;9.032;2022-08-05T06:44:50;9.13;;;4.10;;
37321;SDS011;23697;48.684;9.032;2022-08-05T06:47:17;7.03;;;3.80;;
37321;SDS011;23697;48.684;9.032;2022-08-05T06:49:46;7.85;;;3.90;;
37321;SDS011;23697;48.684;9.032;2022-08-05T06:52:12;8.50;;;4.00;;
37321;SDS011;23697;48.684;9.032;2022-08-05T06:54:39;8.82;;;4.28;;
37321;SDS011;23697;48.684;9.032;2022-08-05T06:57:06;9.75;;;4.25;;
37321;SDS011;23697;48.684;9.032;2022-08-05T06:59:33;5.88;;;3.30;;
37321;SDS011;23697;48.684;9.032;2022-08-05T07:02:00;9.68;;;3.50;;
37321;SDS011;23697;48.684;9.032;2022-08-05T07:04:27;6.03;;;3.20;;
37321;SDS011;23697;48.684;9.032;2022-08-05T07:06:55;6.55;;;3.30;;
37321;SDS011;23697;48.684;9.032;2022-08-05T07:09:22;6.50;;;2.65;;
37321;SDS011;23697;48.684;9.032;2022-08-05T07:11:49;6.53;;;3.00;;
37321;SDS011;23697;48.684;9.032;2022-08-05T07:14:16;8.00;;;2.80;;
37321;SDS011;23697;48.684;9.032;2022-08-05T07:17:02;7.07;;;3.00;;
37321;SDS011;23697;48.684;9.032;2022-08-05T07:19:29;6.10;;;2.90;;
37321;SDS011;23697;48.684;9.032;2022-08-05T07:21:58;5.38;;;2.40;;
37321;SDS011;23697;48.684;9.032;2022-08-05T07:24:25;5.65;;;2.53;;
37321;SDS011;23697;48.684;9.032;2022-08-05T07:26:52;4.25;;;2.72;;
37321;SDS011;23697;48.684;9.032;2022-08-05T07:29:18;6.07;;;2.60;;
37321;SDS011;23697;48.684;9.032;2022-08-05T07:31:45;3.97;;;2.45;;
37321;SDS011;23697;48.684;9.032;2022-08-05T07:34:12;3.67;;;2.50;;
37321;SDS011;23697;48.684;9.032;2022-08-05T07:36:39;4.88;;;2.45;;
37321;SDS011;23697;48.684;9.032;2022-08-05T07:39:07;3.53;;;2.10;;
37321;SDS011;23697;48.684;9.032;2022-08-05T07:41:34;5.75;;;2.70;;
37321;SDS011;23697;48.684;9.032;2022-08-05T07:44:02;4.85;;;2.50;;
37321;SDS011;23697;48.684;9.032;2022-08-05T07:46:30;4.60;;;2.00;;
37321;SDS011;23697;48.684;9.032;2022-08-05T07:48:58;4.18;;;2.10;;
37321;SDS011;23697;48.684;9.032;2022-08-05T07:51:26;3.03;;;2.17;;
37321;SDS011;23697;48.684;9.032;2022-08-05T07:53:52;3.05;;;2.08;;
37321;SDS011;23697;48.684;9.032;2022-08-05T07:56:21;3.38;;;2.20;;
37321;SDS011;23697;48.684;9.032;2022-08-05T07:58:48;4.53;;;2.15;;
37321;SDS011;23697;48.684;9.032;2022-08-05T08:01:14;5.07;;;2.15;;
37321;SDS011;23697;48.684;9.032;2022-08-05T08:03:43;4.80;;;2.20;;
37321;SDS011;23697;48.684;9.032;2022-08-05T08:06:09;3.40;;;2.03;;
37321;SDS011;23697;48.684;9.032;2022-08-05T08:08:36;3.75;;;2.10;;
37321;SDS011;23697;48.684;9.032;2022-08-05T08:11:03;5.13;;;2.30;;
37321;SDS011;23697;48.684;9.032;2022-08-05T08:13:31;3.03;;;1.90;;
37321;SDS011;23697;48.684;9.032;2022-08-05T08:15:58;3.22;;;2.20;;
37321;SDS011;23697;48.684;9.032;2022-08-05T08:18:25;6.28;;;2.33;;
37321;SDS011;23697;48.684;9.032;2022-08-05T08:20:52;4.32;;;2.17;;
37321;SDS011;23697;48.684;9.032;2022-08-05T08:23:19;4.38;;;2.28;;
37321;SDS011;23697;48.684;9.032;2022-08-05T08:25:46;4.82;;;2.30;;
37321;SDS011;23697;48.684;9.032;2022-08-05T08:28:13;4.53;;;2.30;;
37321;SDS011;23697;48.684;9.032;2022-08-05T08:30:41;4.38;;;2.28;;
37321;SDS011;23697;48.684;9.032;2022-08-05T08:33:08;3.50;;;2.30;;
37321;SDS011;23697;48.684;9.032;2022-08-05T08:35:36;2.75;;;2.10;;
37321;SDS011;23697;48.684;9.032;2022-08-05T08:38:03;3.13;;;2.00;;
37321;SDS011;23697;48.684;9.032;2022-08-05T08:40:31;4.13;;;2.15;;
37321;SDS011;23697;48.684;9.032;2022-08-05T08:42:59;2.97;;;2.10;;
37321;SDS011;23697;48.684;9.032;2022-08-05T08:45:27;5.80;;;2.15;;
37321;SDS011;23697;48.684;9.032;2022-08-05T08:47:58;3.95;;;2.08;;
37321;SDS011;23697;48.684;9.032;2022-08-05T08:50:29;3.67;;;2.08;;
37321;SDS011;23697;48.684;9.032;2022-08-05T08:52:59;3.92;;;2.35;;
37321;SDS011;23697;48.684;9.032;2022-08-05T08:55:29;3.47;;;2.13;;
37321;SDS011;23697;48.684;9.032;2022-08-05T08:57:57;3.80;;;2.40;;
37321;SDS011;23697;48.684;9.032;2022-08-05T09:00:25;4.68;;;2.08;;
37321;SDS011;23697;48.684;9.032;2022-08-05T09:02:52;3.88;;;2.00;;
37321;SDS011;23697;48.684;9.032;2022-08-05T09:05:20;3.38;;;2.10;;
37321;SDS011;23697;48.684;9.032;2022-08-05T09:07:48;3.53;;;2.00;;
37321;SDS011;23697;48.684;9.032;2022-08-05T09:10:16;2.63;;;2.00;;
37321;SDS011;23697;48.684;9.032;2022-08-05T09:12:43;3.38;;;2.15;;
37321;SDS011;23697;48.684;9.032;2022-08-05T09:15:10;2.95;;;2.10;;
37321;SDS011;23697;48.684;9.032;2022-08-05T09:17:37;2.90;;;1.95;;
37321;SDS011;23697;48.684;9.032;2022-08-05T09:20:06;3.83;;;2.40;;
37321;SDS011;23697;48.684;9.032;2022-08-05T09:25:31;3.47;;;2.03;;
37321;SDS011;23697;48.684;9.032;2022-08-05T09:28:10;3.72;;;1.90;;
37321;SDS011;23697;48.684;9.032;2022-08-05T09:30:43;3.30;;;2.00;;
37321;SDS011;23697;48.684;9.032;2022-08-05T09:33:18;2.63;;;1.92;;
37321;SDS011;23697;48.684;9.032;2022-08-05T09:35:52;3.50;;;2.20;;
37321;SDS011;23697;48.684;9.032;2022-08-05T09:38:24;4.20;;;2.25;;
37321;SDS011;23697;48.684;9.032;2022-08-05T09:44:00;4.43;;;1.95;;
37321;SDS011;23697;48.684;9.032;2022-08-05T09:46:28;3.42;;;1.98;;
37321;SDS011;23697;48.684;9.032;2022-08-05T09:48:56;4.55;;;1.90;;
37321;SDS011;23697;48.684;9.032;2022-08-05T09:51:32;2.10;;;1.80;;
37321;SDS011;23697;48.684;9.032;2022-08-05T09:57:29;2.90;;;1.90;;
37321;SDS011;23697;48.684;9.032;2022-08-05T10:00:01;3.20;;;2.00;;
37321;SDS011;23697;48.684;9.032;2022-08-05T10:02:33;3.83;;;1.90;;
37321;SDS011;23697;48.684;9.032;2022-08-05T10:05:04;5.65;;;2.25;;
37321;SDS011;23697;48.684;9.032;2022-08-05T10:07:44;2.95;;;2.08;;
37321;SDS011;23697;48.684;9.032;2022-08-05T10:10:13;3.42;;;2.05;;
37321;SDS011;23697;48.684;9.032;2022-08-05T10:12:46;3.03;;;1.88;;
37321;SDS011;23697;48.684;9.032;2022-08-05T10:15:15;2.92;;;1.90;;
37321;SDS011;23697;48.684;9.032;2022-08-05T10:17:44;2.40;;;1.80;;
37321;SDS011;23697;48.684;9.032;2022-08-05T10:20:36;2.78;;;1.90;;
37321;SDS011;23697;48.684;9.032;2022-08-05T10:23:04;3.78;;;1.95;;
37321;SDS011;23697;48.684;9.032;2022-08-05T10:25:31;2.42;;;1.85;;
37321;SDS011;23697;48.684;9.032;2022-08-05T10:28:01;3.13;;;2.00;;
37321;SDS011;23697;48.684;9.032;2022-08-05T10:30:28;2.45;;;1.73;;
37321;SDS011;23697;48.684;9.032;2022-08-05T10:32:56;3.22;;;2.00;;
37321;SDS011;23697;48.684;9.032;2022-08-05T10:35:24;3.75;;;1.90;;
37321;SDS011;23697;48.684;9.032;2022-08-05T10:37:51;4.40;;;2.10;;
37321;SDS011;23697;48.684;9.032;2022-08-05T10:40:20;3.13;;;2.00;;
37321;SDS011;23697;48.684;9.032;2022-08-05T10:42:53;3.50;;;2.10;;
37321;SDS011;23697;48.684;9.032;2022-08-05T10:45:27;4.03;;;2.30;;
37321;SDS011;23697;48.684;9.032;2022-08-05T10:47:55;3.00;;;2.10;;
37321;SDS011;23697;48.684;9.032;2022-08-05T10:50:22;5.32;;;2.20;;
37321;SDS011;23697;48.684;9.032;2022-08-05T10:52:50;4.28;;;2.20;;
37321;SDS011;23697;48.684;9.032;2022-08-05T10:55:21;5.00;;;2.40;;
37321;SDS011;23697;48.684;9.032;2022-08-05T11:00:35;4.15;;;2.28;;
37321;SDS011;23697;48.684;9.032;2022-08-05T11:03:09;3.53;;;2.00;;
37321;SDS011;23697;48.684;9.032;2022-08-05T11:05:38;4.88;;;2.08;;
37321;SDS011;23697;48.684;9.032;2022-08-05T11:08:06;6.05;;;2.10;;
37321;SDS011;23697;48.684;9.032;2022-08-05T11:10:34;4.60;;;2.15;;
37321;SDS011;23697;48.684;9.032;2022-08-05T11:13:02;2.92;;;2.13;;
37321;SDS011;23697;48.684;9.032;2022-08-05T11:15:30;5.75;;;2.10;;
37321;SDS011;23697;48.684;9.032;2022-08-05T11:18:11;3.05;;;2.10;;
37321;SDS011;23697;48.684;9.032;2022-08-05T11:20:49;4.90;;;2.00;;
37321;SDS011;23697;48.684;9.032;2022-08-05T11:26:09;4.25;;;2.20;;
37321;SDS011;23697;48.684;9.032;2022-08-05T11:28:46;5.07;;;2.08;;
37321;SDS011;23697;48.684;9.032;2022-08-05T11:31:20;4.72;;;2.17;;
37321;SDS011;23697;48.684;9.032;2022-08-05T11:34:04;4.13;;;2.08;;
37321;SDS011;23697;48.684;9.032;2022-08-05T11:36:43;3.90;;;2.17;;
37321;SDS011;23697;48.684;9.032;2022-08-05T11:39:16;4.38;;;2.00;;
37321;SDS011;23697;48.684;9.032;2022-08-05T11:41:58;4.45;;;2.30;;
37321;SDS011;23697;48.684;9.032;2022-08-05T11:44:25;4.72;;;1.98;;
37321;SDS011;23697;48.684;9.032;2022-08-05T11:47:02;3.97;;;1.98;;
37321;SDS011;23697;48.684;9.032;2022-08-05T11:49:30;4.63;;;2.10;;
37321;SDS011;23697;48.684;9.032;2022-08-05T11:51:57;3.95;;;2.00;;
37321;SDS011;23697;48.684;9.032;2022-08-05T11:54:25;4.68;;;2.10;;
37321;SDS011;23697;48.684;9.032;2022-08-05T11:56:53;2.92;;;2.13;;
37321;SDS011;23697;48.684;9.032;2022-08-05T11:59:22;2.78;;;2.00;;
37321;SDS011;23697;48.684;9.032;2022-08-05T12:01:54;5.53;;;2.00;;
37321;SDS011;23697;48.684;9.032;2022-08-05T12:04:22;2.63;;;2.00;;
37321;SDS011;23697;48.684;9.032;2022-08-05T12:06:51;5.57;;;2.00;;
37321;SDS011;23697;48.684;9.032;2022-08-05T12:09:20;3.58;;;2.10;;
37321;SDS011;23697;48.684;9.032;2022-08-05T12:11:49;3.30;;;2.10;;
37321;SDS011;23697;48.684;9.032;2022-08-05T12:14:17;2.83;;;2.00;;
37321;SDS011;23697;48.684;9.032;2022-08-05T12:16:44;4.57;;;2.10;;
37321;SDS011;23697;48.684;9.032;2022-08-05T12:19:12;3.10;;;2.15;;
37321;SDS011;23697;48.684;9.032;2022-08-05T12:21:44;4.68;;;2.00;;
37321;SDS011;23697;48.684;9.032;2022-08-05T12:24:14;3.58;;;2.38;;
37321;SDS011;23697;48.684;9.032;2022-08-05T12:26:43;3.20;;;2.10;;
37321;SDS011;23697;48.684;9.032;2022-08-05T12:29:12;4.22;;;2.10;;
37321;SDS011;23697;48.684;9.032;2022-08-05T12:31:42;3.57;;;2.40;;
37321;SDS011;23697;48.684;9.032;2022-08-05T12:34:13;2.83;;;2.13;;
37321;SDS011;23697;48.684;9.032;2022-08-05T12:36:41;3.23;;;2.20;;
37321;SDS011;23697;48.684;9.032;2022-08-05T12:39:10;3.47;;;2.40;;
37321;SDS011;23697;48.684;9.032;2022-08-05T12:41:39;5.88;;;2.20;;
37321;SDS011;23697;48.684;9.032;2022-08-05T12:44:07;4.82;;;2.20;;
37321;SDS011;23697;48.684;9.032;2022-08-05T12:46:36;3.33;;;2.20;;
37321;SDS011;23697;48.684;9.032;2022-08-05T12:49:06;4.03;;;2.30;;
37321;SDS011;23697;48.684;9.032;2022-08-05T12:51:45;3.90;;;2.25;;
37321;SDS011;23697;48.684;9.032;2022-08-05T12:54:22;4.75;;;2.50;;
37321;SDS011;23697;48.684;9.032;2022-08-05T12:56:53;3.95;;;2.28;;
37321;SDS011;23697;48.684;9.032;2022-08-05T12:59:21;3.90;;;2.30;;
37321;SDS011;23697;48.684;9.032;2022-08-05T13:01:54;3.42;;;2.30;;
37321;SDS011;23697;48.684;9.032;2022-08-05T13:04:24;5.28;;;2.40;;
37321;SDS011;23697;48.684;9.032;2022-08-05T13:06:54;3.60;;;2.25;;
37321;SDS011;23697;48.684;9.032;2022-08-05T13:11:49;3.20;;;2.45;;
37321;SDS011;23697;48.684;9.032;2022-08-05T13:14:18;3.28;;;2.38;;
37321;SDS011;23697;48.684;9.032;2022-08-05T13:16:51;3.65;;;2.40;;
37321;SDS011;23697;48.684;9.032;2022-08-05T13:19:20;4.53;;;2.45;;
37321;SDS011;23697;48.684;9.032;2022-08-05T13:21:48;2.85;;;2.22;;
37321;SDS011;23697;48.684;9.032;2022-08-05T13:24:16;4.22;;;2.30;;
37321;SDS011;23697;48.684;9.032;2022-08-05T13:26:44;3.53;;;2.25;;
37321;SDS011;23697;48.684;9.032;2022-08-05T13:29:12;4.97;;;2.40;;
37321;SDS011;23697;48.684;9.032;2022-08-05T13:31:41;3.08;;;2.40;;
37321;SDS011;23697;48.684;9.032;2022-08-05T13:34:08;3.67;;;2.20;;
37321;SDS011;23697;48.684;9.032;2022-08-05T13:36:36;5.05;;;2.53;;
37321;SDS011;23697;48.684;9.032;2022-08-05T13:39:04;4.13;;;2.33;;
37321;SDS011;23697;48.684;9.032;2022-08-05T13:41:31;5.47;;;2.50;;
37321;SDS011;23697;48.684;9.032;2022-08-05T13:43:58;2.72;;;2.30;;
37321;SDS011;23697;48.684;9.032;2022-08-05T13:46:25;4.25;;;2.40;;
37321;SDS011;23697;48.684;9.032;2022-08-05T13:48:54;3.70;;;2.30;;
37321;SDS011;23697;48.684;9.032;2022-08-05T13:51:25;4.53;;;2.42;;
37321;SDS011;23697;48.684;9.032;2022-08-05T13:53:56;3.58;;;2.47;;
37321;SDS011;23697;48.684;9.032;2022-08-05T13:56:23;3.83;;;2.40;;
37321;SDS011;23697;48.684;9.032;2022-08-05T13:58:50;3.58;;;2.45;;
37321;SDS011;23697;48.684;9.032;2022-08-05T14:01:17;3.70;;;2.50;;
37321;SDS011;23697;48.684;9.032;2022-08-05T14:03:44;3.67;;;2.40;;
37321;SDS011;23697;48.684;9.032;2022-08-05T14:06:34;4.03;;;2.20;;
37321;SDS011;23697;48.684;9.032;2022-08-05T14:09:01;3.28;;;2.28;;
37321;SDS011;23697;48.684;9.032;2022-08-05T14:11:28;5.80;;;2.50;;
37321;SDS011;23697;48.684;9.032;2022-08-05T14:13:55;5.13;;;2.30;;
37321;SDS011;23697;48.684;9.032;2022-08-05T14:16:22;4.07;;;2.50;;
37321;SDS011;23697;48.684;9.032;2022-08-05T14:18:49;4.35;;;2.40;;
37321;SDS011;23697;48.684;9.032;2022-08-05T14:21:16;6.57;;;2.50;;
37321;SDS011;23697;48.684;9.032;2022-08-05T14:23:44;4.63;;;2.47;;
37321;SDS011;23697;48.684;9.032;2022-08-05T14:26:11;5.70;;;2.67;;
37321;SDS011;23697;48.684;9.032;2022-08-05T14:28:38;6.35;;;2.50;;
37321;SDS011;23697;48.684;9.032;2022-08-05T14:31:07;4.63;;;2.37;;
37321;SDS011;23697;48.684;9.032;2022-08-05T14:33:34;6.80;;;2.58;;
37321;SDS011;23697;48.684;9.032;2022-08-05T14:36:01;5.13;;;2.40;;
37321;SDS011;23697;48.684;9.032;2022-08-05T14:38:29;5.20;;;2.60;;
37321;SDS011;23697;48.684;9.032;2022-08-05T14:40:57;3.63;;;2.38;;
37321;SDS011;23697;48.684;9.032;2022-08-05T14:43:24;4.10;;;2.60;;
37321;SDS011;23697;48.684;9.032;2022-08-05T14:45:51;4.80;;;2.58;;
37321;SDS011;23697;48.684;9.032;2022-08-05T14:48:17;3.83;;;2.53;;
37321;SDS011;23697;48.684;9.032;2022-08-05T14:50:44;4.80;;;2.75;;
37321;SDS011;23697;48.684;9.032;2022-08-05T14:53:11;4.38;;;2.70;;
37321;SDS011;23697;48.684;9.032;2022-08-05T14:55:38;5.70;;;2.70;;
37321;SDS011;23697;48.684;9.032;2022-08-05T14:58:07;23.25;;;4.35;;
37321;SDS011;23697;48.684;9.032;2022-08-05T15:00:35;31.90;;;7.55;;
37321;SDS011;23697;48.684;9.032;2022-08-05T15:03:02;9.68;;;3.30;;
37321;SDS011;23697;48.684;9.032;2022-08-05T15:05:30;9.80;;;4.50;;
37321;SDS011;23697;48.684;9.032;2022-08-05T15:07:57;10.10;;;3.97;;
37321;SDS011;23697;48.684;9.032;2022-08-05T15:10:26;8.32;;;3.67;;
37321;SDS011;23697;48.684;9.032;2022-08-05T15:12:53;7.10;;;3.67;;
37321;SDS011;23697;48.684;9.032;2022-08-05T15:15:22;5.03;;;3.50;;
37321;SDS011;23697;48.684;9.032;2022-08-05T15:17:49;7.32;;;3.65;;
37321;SDS011;23697;48.684;9.032;2022-08-05T15:20:16;4.50;;;3.30;;
37321;SDS011;23697;48.684;9.032;2022-08-05T15:22:46;6.88;;;3.80;;
37321;SDS011;23697;48.684;9.032;2022-08-05T15:25:13;7.57;;;3.80;;
37321;SDS011;23697;48.684;9.032;2022-08-05T15:27:40;5.50;;;3.40;;
37321;SDS011;23697;48.684;9.032;2022-08-05T15:30:07;6.18;;;3.63;;
37321;SDS011;23697;48.684;9.032;2022-08-05T15:32:37;5.30;;;3.80;;